sensor_id;sensor_type;location;lat;lon;timestamp;pressure;altitude;pressure_sealevel;temperature;humidity
28079;BME280;15388;42.238;24.684;2022-09-12T00:00:23;99059.06;;;18.10;100.00
28079;BME280;15388;42.238;24.684;2022-09-12T00:02:53;99064.59;;;18.08;100.00
28079;BME280;15388;42.238;24.684;2022-09-12T00:05:19;99072.88;;;18.07;100.00
28079;BME280;15388;42.238;24.684;2022-09-12T00:07:44;99073.06;;;18.05;100.00
28079;BME280;15388;42.238;24.684;2022-09-12T00:10:09;99068.06;;;18.02;100.00
28079;BME280;15388;42.238;24.684;2022-09-12T00:12:35;99075.13;;;18.03;100.00
28079;BME280;15388;42.238;24.684;2022-09-12T00:15:00;99063.22;;;18.13;100.00
28079;BME280;15388;42.238;24.684;2022-09-12T00:17:26;99055.34;;;18.18;100.00
28079;BME280;15388;42.238;24.684;2022-09-12T00:19:51;99058.47;;;18.15;100.00
28079;BME280;15388;42.238;24.684;2022-09-12T00:22:17;99062.94;;;18.07;100.00
28079;BME280;15388;42.238;24.684;2022-09-12T00:24:42;99082.09;;;17.91;100.00
28079;BME280;15388;42.238;24.684;2022-09-12T00:27:07;99080.03;;;17.93;100.00
28079;BME280;15388;42.238;24.684;2022-09-12T00:29:33;99079.94;;;17.79;100.00
28079;BME280;15388;42.238;24.684;2022-09-12T00:31:58;99074.34;;;17.81;100.00
28079;BME280;15388;42.238;24.684;2022-09-12T00:34:24;99072.25;;;17.76;100.00
28079;BME280;15388;42.238;24.684;2022-09-12T00:36:49;99067.09;;;17.81;100.00
28079;BME280;15388;42.238;24.684;2022-09-12T00:39:15;99073.28;;;17.75;100.00
28079;BME280;15388;42.238;24.684;2022-09-12T00:41:41;99064.22;;;17.83;100.00
28079;BME280;15388;42.238;24.684;2022-09-12T00:46:40;99057.22;;;17.89;100.00
28079;BME280;15388;42.238;24.684;2022-09-12T00:49:17;99056.44;;;17.95;100.00
28079;BME280;15388;42.238;24.684;2022-09-12T00:51:47;99053.19;;;18.06;100.00
28079;BME280;15388;42.238;24.684;2022-09-12T00:54:15;99057.81;;;18.13;100.00
28079;BME280;15388;42.238;24.684;2022-09-12T00:56:41;99069.06;;;18.23;100.00
28079;BME280;15388;42.238;24.684;2022-09-12T00:59:16;99064.56;;;18.30;100.00
28079;BME280;15388;42.238;24.684;2022-09-12T01:01:42;99071.59;;;18.31;100.00
28079;BME280;15388;42.238;24.684;2022-09-12T01:04:09;99063.69;;;18.23;100.00
28079;BME280;15388;42.238;24.684;2022-09-12T01:06:36;99059.56;;;18.27;100.00
28079;BME280;15388;42.238;24.684;2022-09-12T01:09:04;99063.50;;;18.31;100.00
28079;BME280;15388;42.238;24.684;2022-09-12T01:11:30;99058.28;;;18.23;100.00
28079;BME280;15388;42.238;24.684;2022-09-12T01:13:56;99057.25;;;18.24;100.00
28079;BME280;15388;42.238;24.684;2022-09-12T01:16:21;99057.25;;;18.24;100.00
28079;BME280;15388;42.238;24.684;2022-09-12T01:18:50;99053.09;;;18.22;100.00
28079;BME280;15388;42.238;24.684;2022-09-12T01:22:21;99057.03;;;18.19;100.00
28079;BME280;15388;42.238;24.684;2022-09-12T01:24:32;99044.75;;;18.10;100.00
28079;BME280;15388;42.238;24.684;2022-09-12T01:35:23;99042.00;;;18.03;100.00
28079;BME280;15388;42.238;24.684;2022-09-12T01:40:32;99034.91;;;17.95;100.00
28079;BME280;15388;42.238;24.684;2022-09-12T01:43:03;99037.84;;;18.00;100.00
28079;BME280;15388;42.238;24.684;2022-09-12T01:45:35;99043.63;;;17.97;100.00
28079;BME280;15388;42.238;24.684;2022-09-12T01:48:04;99035.28;;;17.92;100.00
28079;BME280;15388;42.238;24.684;2022-09-12T01:50:34;99035.09;;;17.93;100.00
28079;BME280;15388;42.238;24.684;2022-09-12T01:55:34;99025.94;;;17.88;100.00
28079;BME280;15388;42.238;24.684;2022-09-12T01:58:06;99018.84;;;17.80;100.00
28079;BME280;15388;42.238;24.684;2022-09-12T02:00:34;99015.75;;;17.76;100.00
28079;BME280;15388;42.238;24.684;2022-09-12T02:03:13;99012.41;;;17.74;100.00
28079;BME280;15388;42.238;24.684;2022-09-12T02:05:45;99026.06;;;17.73;100.00
28079;BME280;15388;42.238;24.684;2022-09-12T02:08:13;99021.41;;;17.60;100.00
28079;BME280;15388;42.238;24.684;2022-09-12T02:10:45;99022.22;;;17.53;100.00
28079;BME280;15388;42.238;24.684;2022-09-12T02:13:19;99035.34;;;17.41;100.00
28079;BME280;15388;42.238;24.684;2022-09-12T02:15:48;99028.31;;;17.40;100.00
28079;BME280;15388;42.238;24.684;2022-09-12T02:18:15;99031.19;;;17.39;100.00
28079;BME280;15388;42.238;24.684;2022-09-12T02:20:42;99025.41;;;17.42;100.00
28079;BME280;15388;42.238;24.684;2022-09-12T02:23:10;99022.28;;;17.38;100.00
28079;BME280;15388;42.238;24.684;2022-09-12T02:25:37;99028.44;;;17.32;100.00
28079;BME280;15388;42.238;24.684;2022-09-12T02:28:07;99028.31;;;17.40;100.00
28079;BME280;15388;42.238;24.684;2022-09-12T02:30:39;99024.94;;;17.31;100.00
28079;BME280;15388;42.238;24.684;2022-09-12T02:36:12;99025.31;;;17.28;100.00
28079;BME280;15388;42.238;24.684;2022-09-12T02:38:43;99037.72;;;17.29;100.00
28079;BME280;15388;42.238;24.684;2022-09-12T02:41:09;99033.50;;;17.20;100.00
28079;BME280;15388;42.238;24.684;2022-09-12T02:43:36;99041.56;;;17.20;100.00
28079;BME280;15388;42.238;24.684;2022-09-12T02:46:03;99035.56;;;17.18;100.00
28079;BME280;15388;42.238;24.684;2022-09-12T02:48:30;99042.88;;;17.24;100.00
28079;BME280;15388;42.238;24.684;2022-09-12T02:50:57;99040.59;;;17.28;100.00
28079;BME280;15388;42.238;24.684;2022-09-12T02:53:24;99030.03;;;17.26;100.00
28079;BME280;15388;42.238;24.684;2022-09-12T02:55:49;99025.00;;;17.16;100.00
28079;BME280;15388;42.238;24.684;2022-09-12T02:58:16;99026.41;;;17.12;100.00
28079;BME280;15388;42.238;24.684;2022-09-12T03:11:05;99033.72;;;17.03;100.00
28079;BME280;15388;42.238;24.684;2022-09-12T03:13:38;99037.44;;;17.02;100.00
28079;BME280;15388;42.238;24.684;2022-09-12T03:21:03;99042.69;;;16.89;100.00
28079;BME280;15388;42.238;24.684;2022-09-12T03:23:38;99043.63;;;16.81;100.00
28079;BME280;15388;42.238;24.684;2022-09-12T03:26:15;99036.03;;;16.85;100.00
28079;BME280;15388;42.238;24.684;2022-09-12T03:28:41;99040.75;;;16.83;100.00
28079;BME280;15388;42.238;24.684;2022-09-12T03:31:10;99046.31;;;16.81;100.00
28079;BME280;15388;42.238;24.684;2022-09-12T03:33:36;99041.78;;;16.81;100.00
28079;BME280;15388;42.238;24.684;2022-09-12T03:36:02;99042.53;;;16.75;100.00
28079;BME280;15388;42.238;24.684;2022-09-12T03:38:27;99046.25;;;16.74;100.00
28079;BME280;15388;42.238;24.684;2022-09-12T03:40:52;99036.25;;;16.68;100.00
28079;BME280;15388;42.238;24.684;2022-09-12T03:43:18;99034.59;;;16.67;100.00
28079;BME280;15388;42.238;24.684;2022-09-12T03:45:43;99043.28;;;16.69;100.00
28079;BME280;15388;42.238;24.684;2022-09-12T03:48:08;99037.00;;;16.62;100.00
28079;BME280;15388;42.238;24.684;2022-09-12T03:50:34;99033.75;;;16.51;100.00
28079;BME280;15388;42.238;24.684;2022-09-12T03:52:59;99042.59;;;16.45;100.00
28079;BME280;15388;42.238;24.684;2022-09-12T03:55:25;99043.69;;;16.36;100.00
28079;BME280;15388;42.238;24.684;2022-09-12T03:57:54;99036.38;;;16.29;100.00
28079;BME280;15388;42.238;24.684;2022-09-12T04:00:19;99045.94;;;16.17;100.00
28079;BME280;15388;42.238;24.684;2022-09-12T04:02:45;99038.00;;;16.09;100.00
28079;BME280;15388;42.238;24.684;2022-09-12T04:05:10;99033.34;;;16.02;100.00
28079;BME280;15388;42.238;24.684;2022-09-12T04:07:36;99030.84;;;16.01;100.00
28079;BME280;15388;42.238;24.684;2022-09-12T04:10:01;99040.97;;;15.99;100.00
28079;BME280;15388;42.238;24.684;2022-09-12T04:12:27;99046.16;;;15.92;100.00
28079;BME280;15388;42.238;24.684;2022-09-12T04:14:53;99047.19;;;15.91;100.00
28079;BME280;15388;42.238;24.684;2022-09-12T04:17:18;99047.56;;;15.88;100.00
28079;BME280;15388;42.238;24.684;2022-09-12T04:19:43;99047.19;;;15.91;100.00
28079;BME280;15388;42.238;24.684;2022-09-12T04:22:09;99041.94;;;15.98;100.00
28079;BME280;15388;42.238;24.684;2022-09-12T04:24:34;99053.16;;;16.01;100.00
28079;BME280;15388;42.238;24.684;2022-09-12T04:27:00;99057.25;;;15.97;100.00
28079;BME280;15388;42.238;24.684;2022-09-12T04:29:25;99051.28;;;15.87;100.00
28079;BME280;15388;42.238;24.684;2022-09-12T04:31:51;99057.63;;;15.86;100.00
28079;BME280;15388;42.238;24.684;2022-09-12T04:34:17;99062.44;;;15.90;100.00
28079;BME280;15388;42.238;24.684;2022-09-12T04:36:42;99069.03;;;15.88;100.00
28079;BME280;15388;42.238;24.684;2022-09-12T04:39:09;99059.22;;;15.95;100.00
28079;BME280;15388;42.238;24.684;2022-09-12T04:41:35;99069.25;;;16.01;100.00
28079;BME280;15388;42.238;24.684;2022-09-12T04:44:02;99072.50;;;15.97;100.00
28079;BME280;15388;42.238;24.684;2022-09-12T04:46:35;99067.56;;;16.00;100.00
28079;BME280;15388;42.238;24.684;2022-09-12T04:49:01;99075.25;;;16.03;100.00
28079;BME280;15388;42.238;24.684;2022-09-12T04:51:28;99086.00;;;16.03;100.00
28079;BME280;15388;42.238;24.684;2022-09-12T04:53:54;99089.34;;;16.06;100.00
28079;BME280;15388;42.238;24.684;2022-09-12T04:56:20;99091.84;;;16.07;100.00
28079;BME280;15388;42.238;24.684;2022-09-12T04:58:46;99095.34;;;16.08;100.00
28079;BME280;15388;42.238;24.684;2022-09-12T05:01:12;99099.72;;;16.09;100.00
28079;BME280;15388;42.238;24.684;2022-09-12T05:03:38;99097.47;;;16.12;100.00
28079;BME280;15388;42.238;24.684;2022-09-12T05:06:04;99100.66;;;16.16;100.00
28079;BME280;15388;42.238;24.684;2022-09-12T05:08:30;99095.53;;;16.21;100.00
28079;BME280;15388;42.238;24.684;2022-09-12T05:10:55;99102.78;;;16.21;100.00
28079;BME280;15388;42.238;24.684;2022-09-12T05:13:21;99107.22;;;16.28;100.00
28079;BME280;15388;42.238;24.684;2022-09-12T05:15:53;99104.16;;;16.32;100.00
28079;BME280;15388;42.238;24.684;2022-09-12T05:18:19;99112.78;;;16.42;100.00
28079;BME280;15388;42.238;24.684;2022-09-12T05:20:46;99112.03;;;16.48;100.00
28079;BME280;15388;42.238;24.684;2022-09-12T05:23:11;99111.94;;;16.57;100.00
28079;BME280;15388;42.238;24.684;2022-09-12T05:25:37;99108.78;;;16.68;100.00
28079;BME280;15388;42.238;24.684;2022-09-12T05:28:02;99109.50;;;16.77;100.00
28079;BME280;15388;42.238;24.684;2022-09-12T05:30:28;99105.50;;;16.88;100.00
28079;BME280;15388;42.238;24.684;2022-09-12T05:32:53;99103.09;;;16.93;100.00
28079;BME280;15388;42.238;24.684;2022-09-12T05:35:18;99109.81;;;17.04;100.00
28079;BME280;15388;42.238;24.684;2022-09-12T05:37:43;99119.84;;;17.10;100.00
28079;BME280;15388;42.238;24.684;2022-09-12T05:40:09;99113.34;;;17.19;100.00
28079;BME280;15388;42.238;24.684;2022-09-12T05:42:34;99115.88;;;17.28;100.00
28079;BME280;15388;42.238;24.684;2022-09-12T05:45:00;99117.34;;;17.30;100.00
28079;BME280;15388;42.238;24.684;2022-09-12T05:47:25;99109.81;;;17.41;100.00
28079;BME280;15388;42.238;24.684;2022-09-12T05:49:51;99111.97;;;17.52;100.00
28079;BME280;15388;42.238;24.684;2022-09-12T05:52:16;99102.72;;;17.55;100.00
28079;BME280;15388;42.238;24.684;2022-09-12T05:54:41;99102.97;;;17.60;100.00
28079;BME280;15388;42.238;24.684;2022-09-12T05:57:07;99103.88;;;17.74;100.00
28079;BME280;15388;42.238;24.684;2022-09-12T05:59:32;99104.78;;;17.81;100.00
28079;BME280;15388;42.238;24.684;2022-09-12T06:01:58;99094.69;;;17.90;100.00
28079;BME280;15388;42.238;24.684;2022-09-12T06:04:24;99093.28;;;17.94;100.00
28079;BME280;15388;42.238;24.684;2022-09-12T06:06:50;99090.84;;;18.00;100.00
28079;BME280;15388;42.238;24.684;2022-09-12T06:09:16;99093.03;;;18.11;100.00
28079;BME280;15388;42.238;24.684;2022-09-12T06:11:42;99096.38;;;18.20;100.00
28079;BME280;15388;42.238;24.684;2022-09-12T06:14:08;99094.38;;;18.29;100.00
28079;BME280;15388;42.238;24.684;2022-09-12T06:16:34;99094.41;;;18.36;100.00
28079;BME280;15388;42.238;24.684;2022-09-12T06:19:00;99101.53;;;18.50;100.00
28079;BME280;15388;42.238;24.684;2022-09-12T06:21:26;99085.34;;;18.43;100.00
28079;BME280;15388;42.238;24.684;2022-09-12T06:23:56;99093.28;;;18.58;100.00
28079;BME280;15388;42.238;24.684;2022-09-12T06:26:25;99103.09;;;18.73;100.00
28079;BME280;15388;42.238;24.684;2022-09-12T06:28:51;99102.91;;;18.81;100.00
28079;BME280;15388;42.238;24.684;2022-09-12T06:31:24;99104.41;;;18.91;100.00
28079;BME280;15388;42.238;24.684;2022-09-12T06:33:51;99100.97;;;19.11;100.00
28079;BME280;15388;42.238;24.684;2022-09-12T06:36:18;99103.25;;;19.20;100.00
28079;BME280;15388;42.238;24.684;2022-09-12T06:38:43;99097.25;;;19.25;100.00
28079;BME280;15388;42.238;24.684;2022-09-12T06:41:15;99101.19;;;19.29;100.00
28079;BME280;15388;42.238;24.684;2022-09-12T06:43:40;99095.59;;;19.31;100.00
28079;BME280;15388;42.238;24.684;2022-09-12T06:46:07;99090.66;;;19.34;100.00
28079;BME280;15388;42.238;24.684;2022-09-12T06:48:32;99080.69;;;19.42;100.00
28079;BME280;15388;42.238;24.684;2022-09-12T06:50:58;99079.44;;;19.51;100.00
28079;BME280;15388;42.238;24.684;2022-09-12T06:53:24;99087.13;;;19.68;100.00
28079;BME280;15388;42.238;24.684;2022-09-12T06:55:56;99087.31;;;19.73;100.00
28079;BME280;15388;42.238;24.684;2022-09-12T06:58:22;99087.31;;;19.86;100.00
28079;BME280;15388;42.238;24.684;2022-09-12T07:00:47;99078.81;;;19.90;100.00
28079;BME280;15388;42.238;24.684;2022-09-12T07:03:13;99083.38;;;20.09;100.00
28079;BME280;15388;42.238;24.684;2022-09-12T07:05:38;99077.31;;;20.21;100.00
28079;BME280;15388;42.238;24.684;2022-09-12T07:08:04;99078.38;;;20.20;100.00
28079;BME280;15388;42.238;24.684;2022-09-12T07:10:29;99072.72;;;20.28;100.00
28079;BME280;15388;42.238;24.684;2022-09-12T07:12:55;99080.59;;;20.43;100.00
28079;BME280;15388;42.238;24.684;2022-09-12T07:15:20;99074.56;;;20.48;100.00
28079;BME280;15388;42.238;24.684;2022-09-12T07:17:45;99075.53;;;20.60;100.00
28079;BME280;15388;42.238;24.684;2022-09-12T07:20:11;99088.84;;;20.69;100.00
28079;BME280;15388;42.238;24.684;2022-09-12T07:22:36;99080.09;;;20.67;100.00
28079;BME280;15388;42.238;24.684;2022-09-12T07:25:01;99074.66;;;20.73;100.00
28079;BME280;15388;42.238;24.684;2022-09-12T07:27:27;99074.66;;;20.73;100.00
28079;BME280;15388;42.238;24.684;2022-09-12T07:29:52;99091.66;;;20.81;100.00
28079;BME280;15388;42.238;24.684;2022-09-12T07:32:18;99074.38;;;20.88;100.00
28079;BME280;15388;42.238;24.684;2022-09-12T07:34:43;99094.13;;;20.96;89.67
28079;BME280;15388;42.238;24.684;2022-09-12T07:37:09;99078.22;;;21.13;87.14
28079;BME280;15388;42.238;24.684;2022-09-12T07:39:34;99085.53;;;21.12;82.24
28079;BME280;15388;42.238;24.684;2022-09-12T07:42:00;99079.91;;;21.14;83.77
28079;BME280;15388;42.238;24.684;2022-09-12T07:44:25;99082.72;;;21.26;84.08
28079;BME280;15388;42.238;24.684;2022-09-12T07:46:51;99077.13;;;21.53;83.99
28079;BME280;15388;42.238;24.684;2022-09-12T07:49:16;99083.19;;;21.48;79.77
28079;BME280;15388;42.238;24.684;2022-09-12T07:51:41;99081.81;;;21.64;83.19
28079;BME280;15388;42.238;24.684;2022-09-12T07:54:07;99079.41;;;21.82;80.00
28079;BME280;15388;42.238;24.684;2022-09-12T07:56:33;99077.34;;;21.77;76.70
28079;BME280;15388;42.238;24.684;2022-09-12T07:58:59;99074.81;;;21.82;76.76
28079;BME280;15388;42.238;24.684;2022-09-12T08:01:24;99072.13;;;21.82;75.13
28079;BME280;15388;42.238;24.684;2022-09-12T08:03:57;99067.84;;;21.68;76.21
28079;BME280;15388;42.238;24.684;2022-09-12T08:06:22;99065.28;;;21.73;75.50
28079;BME280;15388;42.238;24.684;2022-09-12T08:08:48;99068.69;;;21.68;74.69
28079;BME280;15388;42.238;24.684;2022-09-12T08:11:15;99073.63;;;21.78;75.00
28079;BME280;15388;42.238;24.684;2022-09-12T08:13:41;99100.19;;;21.88;75.44
28079;BME280;15388;42.238;24.684;2022-09-12T08:16:08;99074.53;;;21.91;74.51
28079;BME280;15388;42.238;24.684;2022-09-12T08:18:36;99070.50;;;22.00;76.76
28079;BME280;15388;42.238;24.684;2022-09-12T08:21:02;99066.16;;;22.18;73.33
28079;BME280;15388;42.238;24.684;2022-09-12T08:23:28;99081.00;;;22.34;73.68
28079;BME280;15388;42.238;24.684;2022-09-12T08:25:55;99068.25;;;22.53;74.14
28079;BME280;15388;42.238;24.684;2022-09-12T08:28:20;99068.84;;;22.55;72.57
28079;BME280;15388;42.238;24.684;2022-09-12T08:30:46;99068.44;;;22.58;72.05
28079;BME280;15388;42.238;24.684;2022-09-12T08:33:11;99066.91;;;22.62;70.94
28079;BME280;15388;42.238;24.684;2022-09-12T08:35:36;99060.38;;;22.70;71.32
28079;BME280;15388;42.238;24.684;2022-09-12T08:38:02;99056.19;;;22.68;69.60
28079;BME280;15388;42.238;24.684;2022-09-12T08:40:27;99060.16;;;22.84;70.34
28079;BME280;15388;42.238;24.684;2022-09-12T08:43:04;99060.16;;;22.84;71.05
28079;BME280;15388;42.238;24.684;2022-09-12T08:45:35;99054.78;;;22.96;69.82
28079;BME280;15388;42.238;24.684;2022-09-12T08:48:04;99057.28;;;22.97;68.26
28079;BME280;15388;42.238;24.684;2022-09-12T08:50:30;99055.53;;;23.03;67.40
28079;BME280;15388;42.238;24.684;2022-09-12T08:53:01;99055.69;;;23.08;66.98
28079;BME280;15388;42.238;24.684;2022-09-12T08:55:34;99071.63;;;23.16;66.81
28079;BME280;15388;42.238;24.684;2022-09-12T08:58:01;99052.75;;;23.22;67.68
28079;BME280;15388;42.238;24.684;2022-09-12T09:00:56;99045.03;;;23.37;63.79
28079;BME280;15388;42.238;24.684;2022-09-12T09:06:15;99040.66;;;23.36;61.69
28079;BME280;15388;42.238;24.684;2022-09-12T09:08:45;99029.47;;;23.69;64.39
28079;BME280;15388;42.238;24.684;2022-09-12T09:11:25;99063.13;;;23.67;58.69
28079;BME280;15388;42.238;24.684;2022-09-12T09:17:10;99033.81;;;23.82;56.88
28079;BME280;15388;42.238;24.684;2022-09-12T09:19:40;99038.09;;;23.89;56.91
28079;BME280;15388;42.238;24.684;2022-09-12T09:22:12;99024.72;;;24.00;57.07
28079;BME280;15388;42.238;24.684;2022-09-12T09:24:42;99019.09;;;24.13;58.15
28079;BME280;15388;42.238;24.684;2022-09-12T09:29:39;99033.47;;;24.26;54.21
28079;BME280;15388;42.238;24.684;2022-09-12T09:32:21;99026.00;;;24.33;55.96
28079;BME280;15388;42.238;24.684;2022-09-12T09:34:49;99019.69;;;24.45;55.04
28079;BME280;15388;42.238;24.684;2022-09-12T09:37:20;99013.81;;;24.36;55.23
28079;BME280;15388;42.238;24.684;2022-09-12T09:42:40;99020.56;;;24.33;53.98
28079;BME280;15388;42.238;24.684;2022-09-12T09:45:18;99022.41;;;24.45;54.99
28079;BME280;15388;42.238;24.684;2022-09-12T09:47:47;99021.84;;;24.42;53.96
28079;BME280;15388;42.238;24.684;2022-09-12T09:50:14;99015.88;;;24.58;55.57
28079;BME280;15388;42.238;24.684;2022-09-12T09:52:40;99020.69;;;24.38;55.74
28079;BME280;15388;42.238;24.684;2022-09-12T09:55:09;99024.38;;;24.61;56.26
28079;BME280;15388;42.238;24.684;2022-09-12T09:57:37;99012.63;;;24.43;53.97
28079;BME280;15388;42.238;24.684;2022-09-12T10:00:22;99018.53;;;24.70;52.60
28079;BME280;15388;42.238;24.684;2022-09-12T10:05:23;99011.03;;;24.89;52.37
28079;BME280;15388;42.238;24.684;2022-09-12T10:07:48;99014.91;;;24.93;52.16
28079;BME280;15388;42.238;24.684;2022-09-12T10:10:15;99011.72;;;24.84;51.96
28079;BME280;15388;42.238;24.684;2022-09-12T10:12:41;99014.25;;;25.03;52.49
28079;BME280;15388;42.238;24.684;2022-09-12T10:15:20;99003.34;;;24.86;51.19
28079;BME280;15388;42.238;24.684;2022-09-12T10:17:47;99000.81;;;24.96;53.44
28079;BME280;15388;42.238;24.684;2022-09-12T10:20:35;99010.69;;;25.14;52.07
28079;BME280;15388;42.238;24.684;2022-09-12T10:22:59;99020.63;;;25.09;50.49
28079;BME280;15388;42.238;24.684;2022-09-12T10:25:25;99004.72;;;25.17;51.98
28079;BME280;15388;42.238;24.684;2022-09-12T10:27:52;99003.25;;;25.27;50.50
28079;BME280;15388;42.238;24.684;2022-09-12T10:30:18;98993.00;;;25.34;52.61
28079;BME280;15388;42.238;24.684;2022-09-12T10:32:45;99000.53;;;25.27;53.71
28079;BME280;15388;42.238;24.684;2022-09-12T10:35:17;99004.06;;;25.44;53.42
28079;BME280;15388;42.238;24.684;2022-09-12T10:37:56;98998.53;;;25.05;53.04
28079;BME280;15388;42.238;24.684;2022-09-12T10:42:49;98999.63;;;24.46;52.61
28079;BME280;15388;42.238;24.684;2022-09-12T10:45:25;99004.28;;;24.21;50.74
28079;BME280;15388;42.238;24.684;2022-09-12T10:47:53;98997.88;;;24.27;50.83
28079;BME280;15388;42.238;24.684;2022-09-12T10:50:21;99005.06;;;24.75;50.52
28079;BME280;15388;42.238;24.684;2022-09-12T10:52:47;98997.69;;;25.04;47.62
28079;BME280;15388;42.238;24.684;2022-09-12T10:55:15;99009.66;;;25.21;47.66
28079;BME280;15388;42.238;24.684;2022-09-12T10:58:01;99000.75;;;25.25;47.38
28079;BME280;15388;42.238;24.684;2022-09-12T11:00:30;98998.03;;;25.42;47.67
28079;BME280;15388;42.238;24.684;2022-09-12T11:03:04;99002.25;;;25.33;46.77
28079;BME280;15388;42.238;24.684;2022-09-12T11:10:39;99017.59;;;25.74;48.39
28079;BME280;15388;42.238;24.684;2022-09-12T11:15:45;99003.25;;;25.27;49.23
28079;BME280;15388;42.238;24.684;2022-09-12T11:20:49;98996.16;;;25.43;48.90
28079;BME280;15388;42.238;24.684;2022-09-12T11:23:36;98993.59;;;25.36;47.72
28079;BME280;15388;42.238;24.684;2022-09-12T11:28:34;99014.31;;;25.37;47.01
28079;BME280;15388;42.238;24.684;2022-09-12T11:33:41;98989.72;;;25.49;46.94
28079;BME280;15388;42.238;24.684;2022-09-12T11:36:11;98976.91;;;25.50;46.99
28079;BME280;15388;42.238;24.684;2022-09-12T11:38:44;98981.84;;;25.53;48.36
28079;BME280;15388;42.238;24.684;2022-09-12T11:43:57;98984.56;;;25.87;44.57
28079;BME280;15388;42.238;24.684;2022-09-12T11:46:34;98977.06;;;26.00;46.95
28079;BME280;15388;42.238;24.684;2022-09-12T11:56:39;98958.19;;;26.15;44.07
28079;BME280;15388;42.238;24.684;2022-09-12T11:59:12;98968.88;;;25.77;45.17
28079;BME280;15388;42.238;24.684;2022-09-12T12:01:41;98963.56;;;25.65;47.15
28079;BME280;15388;42.238;24.684;2022-09-12T12:04:11;98971.06;;;25.58;45.72
28079;BME280;15388;42.238;24.684;2022-09-12T12:06:51;98977.34;;;25.24;47.79
28079;BME280;15388;42.238;24.684;2022-09-12T12:09:19;98970.00;;;25.08;48.67
28079;BME280;15388;42.238;24.684;2022-09-12T12:11:46;98972.72;;;25.08;49.59
28079;BME280;15388;42.238;24.684;2022-09-12T12:14:17;98976.25;;;24.91;47.91
28079;BME280;15388;42.238;24.684;2022-09-12T12:16:44;98972.50;;;24.80;49.19
28079;BME280;15388;42.238;24.684;2022-09-12T12:21:38;98958.22;;;24.73;48.55
28079;BME280;15388;42.238;24.684;2022-09-12T12:34:38;98950.03;;;24.55;50.03
28079;BME280;15388;42.238;24.684;2022-09-12T12:45:43;98941.00;;;25.53;46.07
28079;BME280;15388;42.238;24.684;2022-09-12T12:47:58;98945.44;;;25.76;45.40
28079;BME280;15388;42.238;24.684;2022-09-12T12:50:26;98960.16;;;25.75;46.39
28079;BME280;15388;42.238;24.684;2022-09-12T12:53:00;98948.03;;;25.66;46.44
28079;BME280;15388;42.238;24.684;2022-09-12T12:55:29;98959.25;;;25.69;46.38
28079;BME280;15388;42.238;24.684;2022-09-12T12:57:58;98951.00;;;25.64;46.20
28079;BME280;15388;42.238;24.684;2022-09-12T13:05:41;98949.06;;;26.27;43.53
28079;BME280;15388;42.238;24.684;2022-09-12T13:08:25;98950.69;;;26.28;43.29
28079;BME280;15388;42.238;24.684;2022-09-12T13:11:00;98949.06;;;25.82;42.48
28079;BME280;15388;42.238;24.684;2022-09-12T13:13:28;98946.91;;;25.84;43.47
28079;BME280;15388;42.238;24.684;2022-09-12T13:15:56;98954.28;;;26.06;43.15
28079;BME280;15388;42.238;24.684;2022-09-12T13:18:25;98936.84;;;26.29;43.95
28079;BME280;15388;42.238;24.684;2022-09-12T13:20:53;98951.03;;;26.31;44.06
28079;BME280;15388;42.238;24.684;2022-09-12T13:23:21;98947.28;;;26.15;43.89
28079;BME280;15388;42.238;24.684;2022-09-12T13:25:51;98941.63;;;25.77;45.39
28079;BME280;15388;42.238;24.684;2022-09-12T13:28:16;98943.81;;;25.75;45.93
28079;BME280;15388;42.238;24.684;2022-09-12T13:31:27;98962.97;;;25.63;45.46
28079;BME280;15388;42.238;24.684;2022-09-12T13:43:57;98945.47;;;25.99;44.41
28079;BME280;15388;42.238;24.684;2022-09-12T13:46:27;98966.19;;;26.00;43.87
28079;BME280;15388;42.238;24.684;2022-09-12T13:48:54;98965.59;;;25.75;42.79
28079;BME280;15388;42.238;24.684;2022-09-12T13:51:24;98950.56;;;25.55;44.00
28079;BME280;15388;42.238;24.684;2022-09-12T13:53:50;98955.88;;;25.28;44.84
28079;BME280;15388;42.238;24.684;2022-09-12T13:56:17;98947.63;;;24.88;46.28
28079;BME280;15388;42.238;24.684;2022-09-12T13:58:56;98952.09;;;24.65;47.39
28079;BME280;15388;42.238;24.684;2022-09-12T14:01:23;98956.28;;;24.56;49.06
28079;BME280;15388;42.238;24.684;2022-09-12T14:03:50;98949.16;;;24.38;48.24
28079;BME280;15388;42.238;24.684;2022-09-12T14:06:48;98950.31;;;24.42;49.42
28079;BME280;15388;42.238;24.684;2022-09-12T14:09:36;98960.06;;;24.26;48.11
28079;BME280;15388;42.238;24.684;2022-09-12T14:11:59;98973.19;;;24.29;48.94
28079;BME280;15388;42.238;24.684;2022-09-12T14:14:35;98960.31;;;24.24;48.94
28079;BME280;15388;42.238;24.684;2022-09-12T14:17:35;98960.22;;;24.19;48.84
28079;BME280;15388;42.238;24.684;2022-09-12T14:19:57;98953.38;;;24.16;49.85
28079;BME280;15388;42.238;24.684;2022-09-12T14:22:27;98951.97;;;24.02;48.91
28079;BME280;15388;42.238;24.684;2022-09-12T14:24:54;98966.38;;;24.02;49.75
28079;BME280;15388;42.238;24.684;2022-09-12T14:27:23;98964.00;;;24.06;50.22
28079;BME280;15388;42.238;24.684;2022-09-12T14:29:52;98949.59;;;23.94;50.82
28079;BME280;15388;42.238;24.684;2022-09-12T14:32:23;98958.63;;;23.82;50.24
28079;BME280;15388;42.238;24.684;2022-09-12T14:37:32;98959.91;;;23.79;50.46
28079;BME280;15388;42.238;24.684;2022-09-12T14:39:58;98956.13;;;23.69;52.09
28079;BME280;15388;42.238;24.684;2022-09-12T14:42:25;98962.50;;;23.74;52.77
28079;BME280;15388;42.238;24.684;2022-09-12T14:44:57;98960.53;;;23.70;53.38
28079;BME280;15388;42.238;24.684;2022-09-12T14:47:25;98956.38;;;23.67;52.33